createdAt,value
2022-09-27T00:01:16.659Z,3.97
2022-09-27T00:03:45.063Z,3.70
2022-09-27T00:06:16.437Z,4.00
2022-09-27T00:08:44.442Z,3.73
2022-09-27T00:11:18.571Z,3.83
2022-09-27T00:13:46.555Z,3.70
2022-09-27T00:16:14.491Z,3.83
2022-09-27T00:18:42.549Z,3.80
2022-09-27T00:21:14.410Z,3.60
2022-09-27T00:23:42.588Z,4.03
2022-09-27T00:26:13.327Z,3.83
2022-09-27T00:28:41.694Z,3.60
2022-09-27T00:31:21.339Z,3.60
2022-09-27T00:33:50.344Z,3.90
2022-09-27T00:36:20.754Z,4.30
2022-09-27T00:38:49.100Z,4.00
2022-09-27T00:41:19.179Z,4.03
2022-09-27T00:43:50.127Z,4.00
2022-09-27T00:46:25.155Z,3.87
2022-09-27T00:49:06.613Z,3.93
2022-09-27T00:51:39.131Z,3.90
2022-09-27T00:54:12.495Z,4.20
2022-09-27T00:56:41.222Z,3.90
2022-09-27T00:59:14.826Z,4.30
2022-09-27T01:01:42.987Z,3.90
2022-09-27T01:04:13.357Z,4.03
2022-09-27T01:06:43.012Z,3.80
2022-09-27T01:09:12.877Z,3.90
2022-09-27T01:11:45.222Z,3.80
2022-09-27T01:14:29.643Z,3.93
2022-09-27T01:17:07.951Z,3.57
2022-09-27T01:20:08.359Z,3.70
2022-09-27T01:22:42.023Z,4.07
2022-09-27T01:25:26.909Z,3.60
2022-09-27T01:28:19.079Z,4.03
2022-09-27T01:30:55.003Z,3.90
2022-09-27T01:33:36.141Z,4.00
2022-09-27T01:36:18.473Z,4.20
2022-09-27T01:38:56.205Z,3.87
2022-09-27T01:41:34.329Z,3.80
2022-09-27T01:44:26.069Z,4.10
2022-09-27T01:47:06.026Z,3.67
2022-09-27T01:49:55.106Z,3.90
2022-09-27T01:52:27.580Z,3.60
2022-09-27T01:55:00.470Z,4.07
2022-09-27T01:58:14.863Z,3.80
2022-09-27T02:00:48.885Z,4.30
2022-09-27T02:03:25.415Z,4.13
2022-09-27T02:06:36.184Z,3.77
2022-09-27T02:09:22.557Z,3.90
2022-09-27T02:12:11.055Z,4.20
2022-09-27T02:14:44.214Z,4.20
2022-09-27T02:17:23.338Z,4.10
2022-09-27T02:19:57.554Z,3.93
2022-09-27T02:22:35.966Z,3.90
2022-09-27T02:25:12.058Z,3.77
2022-09-27T02:27:50.118Z,3.93
2022-09-27T02:30:21.016Z,3.93
2022-09-27T02:32:55.610Z,4.03
2022-09-27T02:35:32.409Z,4.00
2022-09-27T02:38:01.627Z,4.10
2022-09-27T02:40:33.743Z,4.20
2022-09-27T02:43:04.255Z,4.57
2022-09-27T02:45:40.864Z,4.17
2022-09-27T02:48:20.638Z,4.43
2022-09-27T02:51:18.671Z,4.37
2022-09-27T02:54:00.138Z,4.43
2022-09-27T02:56:58.964Z,4.60
2022-09-27T03:00:07.625Z,4.20
2022-09-27T03:03:03.816Z,4.40
2022-09-27T03:05:54.997Z,4.30
2022-09-27T03:08:25.043Z,4.40
2022-09-27T03:10:53.506Z,4.37
2022-09-27T03:13:21.401Z,4.60
2022-09-27T03:15:49.412Z,4.90
2022-09-27T03:18:20.222Z,4.60
2022-09-27T03:21:10.633Z,4.63
2022-09-27T03:23:39.853Z,4.10
2022-09-27T03:26:12.232Z,4.50
2022-09-27T03:28:41.777Z,4.77
2022-09-27T03:31:10.123Z,4.73
2022-09-27T03:33:56.951Z,4.20
2022-09-27T03:36:25.064Z,5.17
2022-09-27T03:38:54.398Z,4.47
2022-09-27T03:41:22.665Z,4.40
2022-09-27T03:43:50.846Z,4.27
2022-09-27T03:46:18.920Z,4.57
2022-09-27T03:48:46.873Z,4.47
2022-09-27T03:51:14.710Z,4.47
2022-09-27T03:53:42.701Z,4.90
2022-09-27T03:56:12.170Z,4.57
2022-09-27T03:58:40.088Z,4.07
2022-09-27T04:01:08.332Z,4.50
2022-09-27T04:03:38.100Z,4.20
2022-09-27T04:06:27.027Z,4.53
2022-09-27T04:08:55.266Z,4.57
2022-09-27T04:11:27.696Z,4.30
2022-09-27T04:13:56.182Z,4.63
2022-09-27T04:16:24.600Z,4.27
2022-09-27T04:19:18.593Z,4.77
2022-09-27T04:21:49.838Z,4.20
2022-09-27T04:24:19.010Z,4.13
2022-09-27T04:27:07.917Z,4.47
2022-09-27T04:29:43.062Z,4.03
2022-09-27T04:32:27.307Z,3.93
2022-09-27T04:35:33.197Z,4.10
2022-09-27T04:38:01.393Z,4.00
2022-09-27T04:40:29.982Z,4.40
2022-09-27T04:42:59.785Z,4.07
2022-09-27T04:45:27.741Z,4.30
2022-09-27T04:47:55.745Z,3.90
2022-09-27T04:50:24.237Z,3.90
2022-09-27T04:53:03.004Z,4.07
2022-09-27T04:55:31.126Z,3.50
2022-09-27T04:58:01.581Z,4.07
2022-09-27T05:00:30.286Z,3.80
2022-09-27T05:03:15.952Z,3.93
2022-09-27T05:05:56.546Z,3.63
2022-09-27T05:08:24.543Z,3.60
2022-09-27T05:11:10.798Z,4.07
2022-09-27T05:13:41.320Z,3.47
2022-09-27T05:16:09.691Z,4.00
2022-09-27T05:19:06.574Z,3.43
2022-09-27T05:22:07.027Z,3.93
2022-09-27T05:24:35.496Z,4.00
2022-09-27T05:27:08.107Z,4.10
2022-09-27T05:29:37.401Z,3.63
2022-09-27T05:32:16.485Z,4.27
2022-09-27T05:34:46.676Z,4.10
2022-09-27T05:37:14.851Z,4.37
2022-09-27T05:39:43.525Z,4.20
2022-09-27T05:42:12.201Z,4.37
2022-09-27T05:44:41.587Z,4.30
2022-09-27T05:47:09.643Z,4.30
2022-09-27T05:49:39.315Z,4.70
2022-09-27T05:52:12.024Z,4.60
2022-09-27T05:54:42.996Z,4.97
2022-09-27T05:57:10.814Z,5.00
2022-09-27T05:59:47.752Z,5.13
2022-09-27T06:02:21.409Z,5.27
2022-09-27T06:04:49.468Z,4.63
2022-09-27T06:07:35.798Z,4.90
2022-09-27T06:10:08.279Z,5.00
2022-09-27T06:12:36.506Z,5.07
2022-09-27T06:15:10.201Z,5.47
2022-09-27T06:17:41.806Z,5.53
2022-09-27T06:20:18.493Z,6.30
2022-09-27T06:22:47.496Z,5.33
2022-09-27T06:25:15.837Z,5.80
2022-09-27T06:28:09.803Z,6.20
2022-09-27T06:30:42.339Z,6.40
2022-09-27T06:33:28.926Z,6.27
2022-09-27T06:36:01.918Z,6.17
2022-09-27T06:38:31.300Z,6.03
2022-09-27T06:41:11.485Z,5.60
2022-09-27T06:43:54.524Z,6.33
2022-09-27T06:46:39.828Z,5.40
2022-09-27T06:49:27.954Z,5.80
2022-09-27T06:51:58.270Z,5.70
2022-09-27T06:54:26.152Z,5.70
2022-09-27T06:56:54.941Z,5.60
2022-09-27T06:59:43.124Z,4.97
2022-09-27T07:02:31.042Z,4.87
2022-09-27T07:05:18.343Z,6.27
2022-09-27T07:08:18.386Z,6.20
2022-09-27T07:10:46.565Z,6.80
2022-09-27T07:13:14.366Z,6.77
2022-09-27T07:15:42.954Z,6.57
2022-09-27T07:18:15.835Z,7.10
2022-09-27T07:20:43.725Z,7.17
2022-09-27T07:23:12.094Z,7.77
2022-09-27T07:25:39.962Z,7.47
2022-09-27T07:28:11.642Z,7.17
2022-09-27T07:30:39.651Z,7.93
2022-09-27T07:33:07.817Z,7.33
2022-09-27T07:35:40.155Z,7.17
2022-09-27T07:38:10.037Z,7.90
2022-09-27T07:40:38.142Z,8.07
2022-09-27T07:43:06.086Z,7.77
2022-09-27T07:45:35.025Z,7.90
2022-09-27T07:48:14.886Z,7.70
2022-09-27T07:51:01.587Z,5.80
2022-09-27T07:53:43.546Z,4.97
2022-09-27T07:56:33.030Z,3.47
2022-09-27T07:59:01.546Z,4.03
2022-09-27T08:01:30.707Z,4.13
2022-09-27T08:03:59.494Z,3.20
2022-09-27T08:06:28.910Z,2.73
2022-09-27T08:08:58.110Z,2.43
2022-09-27T08:11:27.102Z,2.57
2022-09-27T08:13:57.079Z,2.93
2022-09-27T08:16:29.914Z,2.83
2022-09-27T08:19:17.033Z,3.00
2022-09-27T08:22:05.276Z,3.53
2022-09-27T08:24:39.926Z,3.50
2022-09-27T08:27:24.656Z,3.30
2022-09-27T08:29:58.993Z,3.53
2022-09-27T08:32:28.574Z,3.40
2022-09-27T08:34:56.393Z,3.70
2022-09-27T08:37:27.245Z,3.50
2022-09-27T08:39:55.287Z,3.40
2022-09-27T08:42:32.551Z,3.60
2022-09-27T08:45:04.892Z,3.37
2022-09-27T08:47:39.555Z,3.33
2022-09-27T08:50:18.962Z,3.50
2022-09-27T08:52:53.477Z,3.50
2022-09-27T08:55:25.569Z,2.90
2022-09-27T08:57:57.501Z,2.80
2022-09-27T09:00:29.408Z,2.60
2022-09-27T09:02:58.873Z,2.50
2022-09-27T09:05:31.431Z,2.63
2022-09-27T09:08:16.886Z,2.30
2022-09-27T09:11:11.101Z,2.40
2022-09-27T09:14:04.309Z,2.10
2022-09-27T09:16:44.559Z,1.90
2022-09-27T09:19:33.628Z,2.20
2022-09-27T09:22:28.903Z,1.60
2022-09-27T09:25:15.325Z,1.83
2022-09-27T09:27:51.927Z,2.00
2022-09-27T09:30:23.150Z,2.20
2022-09-27T09:33:16.550Z,2.40
2022-09-27T09:35:51.385Z,1.80
2022-09-27T09:38:24.390Z,1.97
2022-09-27T09:40:59.610Z,1.80
2022-09-27T09:43:33.296Z,1.87
2022-09-27T09:46:08.874Z,1.90
2022-09-27T09:48:44.146Z,1.80
2022-09-27T09:51:18.802Z,1.70
2022-09-27T09:53:52.594Z,1.63
2022-09-27T09:56:32.962Z,1.87
2022-09-27T09:59:03.244Z,1.93
2022-09-27T10:01:42.087Z,1.83
2022-09-27T10:04:19.334Z,1.90
2022-09-27T10:06:47.539Z,1.87
2022-09-27T10:09:17.508Z,1.60
2022-09-27T10:12:06.870Z,1.60
2022-09-27T10:14:36.426Z,1.57
2022-09-27T10:17:11.298Z,1.83
2022-09-27T10:19:40.195Z,1.97
2022-09-27T10:22:15.955Z,1.60
2022-09-27T10:24:56.775Z,1.80
2022-09-27T10:27:51.173Z,1.80
2022-09-27T10:30:27.279Z,1.80
2022-09-27T10:33:00.860Z,1.80
2022-09-27T10:35:43.444Z,1.97
2022-09-27T10:38:24.108Z,1.80
2022-09-27T10:40:58.616Z,1.90
2022-09-27T10:43:30.798Z,1.67
2022-09-27T10:46:21.272Z,2.00
2022-09-27T10:49:09.599Z,1.90
2022-09-27T10:51:38.394Z,1.90
2022-09-27T10:54:07.094Z,1.77
2022-09-27T10:56:37.311Z,1.70
2022-09-27T10:59:08.787Z,2.20
2022-09-27T11:01:45.292Z,2.17
2022-09-27T11:04:24.058Z,2.00
2022-09-27T11:06:52.299Z,2.37
2022-09-27T11:09:26.363Z,2.10
2022-09-27T11:12:11.739Z,2.03
2022-09-27T11:14:41.601Z,1.90
2022-09-27T11:17:18.773Z,2.10
2022-09-27T11:20:07.454Z,2.00
2022-09-27T11:22:57.852Z,2.10
2022-09-27T11:25:39.721Z,1.73
2022-09-27T11:28:20.656Z,1.50
2022-09-27T11:31:03.787Z,1.40
2022-09-27T11:34:05.505Z,1.50
2022-09-27T11:36:53.662Z,1.50
2022-09-27T11:39:29.086Z,1.20
2022-09-27T11:42:12.999Z,1.43
2022-09-27T11:45:19.902Z,1.40
2022-09-27T11:47:58.009Z,1.83
2022-09-27T11:51:02.312Z,1.73
2022-09-27T11:53:44.326Z,1.67
2022-09-27T11:56:26.840Z,1.50
2022-09-27T11:59:07.820Z,1.70
2022-09-27T12:01:41.929Z,1.70
2022-09-27T12:04:33.033Z,1.43
2022-09-27T12:07:11.598Z,1.60
2022-09-27T12:09:44.419Z,1.87
2022-09-27T12:12:17.344Z,1.63
2022-09-27T12:14:49.412Z,1.70
2022-09-27T12:17:21.969Z,1.80
2022-09-27T12:19:55.708Z,1.80
2022-09-27T12:22:58.728Z,1.80
2022-09-27T12:25:48.377Z,1.70
2022-09-27T12:28:30.994Z,1.53
2022-09-27T12:31:28.000Z,1.47
2022-09-27T12:34:05.686Z,1.30
2022-09-27T12:36:40.524Z,1.73
2022-09-27T12:39:17.184Z,1.30
2022-09-27T12:41:56.334Z,1.33
2022-09-27T12:44:39.307Z,1.40
2022-09-27T12:47:12.627Z,1.70
2022-09-27T12:49:50.104Z,2.00
2022-09-27T12:52:25.519Z,2.00
2022-09-27T12:55:16.981Z,1.87
2022-09-27T14:06:17.501Z,2.90
2022-09-27T14:08:49.622Z,2.80
2022-09-27T14:11:22.997Z,2.60
2022-09-27T14:13:52.944Z,2.40
2022-09-27T14:16:23.237Z,2.43
2022-09-27T14:18:57.564Z,3.57
2022-09-27T14:21:39.875Z,2.60
2022-09-27T14:24:31.285Z,2.20
2022-09-27T14:27:13.105Z,2.40
2022-09-27T14:29:46.568Z,2.17
2022-09-27T14:32:19.430Z,1.77
2022-09-27T14:35:32.588Z,1.80
2022-09-27T14:38:15.741Z,1.60
2022-09-27T14:40:59.276Z,2.00
2022-09-27T14:43:27.964Z,1.90
2022-09-27T14:46:00.162Z,2.00
2022-09-27T14:48:30.215Z,1.70
2022-09-27T14:51:04.973Z,1.40
2022-09-27T14:53:42.308Z,1.60
2022-09-27T14:56:18.111Z,1.67
2022-09-27T14:58:48.262Z,1.60
2022-09-27T15:01:17.203Z,1.77
2022-09-27T15:03:48.896Z,1.40
2022-09-27T15:06:19.271Z,1.70
2022-09-27T15:08:49.569Z,1.30
2022-09-27T15:11:19.230Z,1.43
2022-09-27T15:13:51.209Z,1.37
2022-09-27T15:16:21.999Z,1.40
2022-09-27T15:18:51.214Z,1.50
2022-09-27T15:21:30.307Z,1.50
2022-09-27T15:24:00.152Z,1.50
2022-09-27T15:26:36.818Z,1.30
2022-09-27T15:29:05.341Z,1.47
2022-09-27T15:31:35.709Z,1.60
2022-09-27T15:34:06.647Z,1.37
2022-09-27T15:36:55.978Z,1.40
2022-09-27T15:39:32.246Z,1.60
2022-09-27T15:42:19.777Z,1.47
2022-09-27T15:44:49.623Z,1.50
2022-09-27T15:47:47.794Z,1.60
2022-09-27T15:50:35.976Z,1.40
2022-09-27T15:53:06.564Z,1.70
2022-09-27T15:55:40.662Z,1.60
2022-09-27T15:58:15.479Z,1.60
2022-09-27T16:00:53.057Z,1.70
2022-09-27T16:03:20.932Z,1.70
2022-09-27T16:05:48.607Z,1.67
2022-09-27T16:08:16.791Z,1.53
2022-09-27T16:10:49.732Z,1.60
2022-09-27T16:13:17.513Z,1.90
2022-09-27T16:15:46.292Z,1.80
2022-09-27T16:18:14.503Z,1.70
2022-09-27T16:20:42.618Z,2.10
2022-09-27T16:23:10.485Z,1.80
2022-09-27T16:25:38.203Z,2.10
2022-09-27T16:28:09.764Z,1.70
2022-09-27T16:30:37.584Z,2.23
2022-09-27T16:33:05.320Z,2.37
2022-09-27T16:35:33.237Z,2.10
2022-09-27T16:38:00.998Z,2.77
2022-09-27T16:40:30.526Z,2.73
2022-09-27T16:42:58.247Z,2.93
2022-09-27T16:45:32.649Z,2.67
2022-09-27T16:48:00.887Z,2.50
2022-09-27T16:50:46.266Z,2.50
2022-09-27T16:53:14.052Z,2.50
2022-09-27T16:55:41.801Z,2.30
2022-09-27T16:58:09.555Z,2.33
2022-09-27T17:00:40.588Z,2.20
2022-09-27T17:03:08.737Z,2.40
2022-09-27T17:05:36.437Z,2.20
2022-09-27T17:08:05.464Z,2.10
2022-09-27T17:10:35.706Z,2.00
2022-09-27T17:13:03.470Z,2.23
2022-09-27T17:15:31.442Z,2.00
2022-09-27T17:18:00.472Z,2.10
2022-09-27T17:20:28.266Z,2.30
2022-09-27T17:22:56.935Z,1.73
2022-09-27T17:25:24.633Z,2.10
2022-09-27T17:27:52.401Z,1.90
2022-09-27T17:30:20.963Z,1.70
2022-09-27T17:32:48.774Z,1.60
2022-09-27T17:35:18.013Z,1.90
2022-09-27T17:37:46.082Z,1.80
2022-09-27T17:40:16.099Z,1.97
2022-09-27T17:42:44.044Z,1.70
2022-09-27T17:45:12.034Z,1.70
2022-09-27T17:47:57.361Z,1.97
2022-09-27T17:50:28.346Z,1.70
2022-09-27T17:52:58.475Z,1.60
2022-09-27T17:55:27.443Z,1.60
2022-09-27T17:57:55.224Z,1.70
2022-09-27T18:00:22.985Z,1.50
2022-09-27T18:02:51.073Z,1.60
2022-09-27T18:05:21.088Z,1.70
2022-09-27T18:07:50.536Z,1.40
2022-09-27T18:10:18.593Z,1.90
2022-09-27T18:12:46.345Z,1.50
2022-09-27T18:15:16.476Z,1.90
2022-09-27T18:17:45.715Z,1.87
2022-09-27T18:20:13.513Z,31.40
2022-09-27T18:22:41.413Z,34.13
2022-09-27T18:25:11.936Z,38.23
2022-09-27T18:27:40.252Z,26.97
2022-09-27T18:30:09.382Z,36.17
2022-09-27T18:32:37.218Z,7.13
2022-09-27T18:35:05.253Z,9.67
2022-09-27T18:37:32.982Z,4.33
2022-09-27T18:40:00.758Z,2.80
2022-09-27T18:42:29.850Z,4.00
2022-09-27T18:44:57.647Z,3.00
2022-09-27T18:47:25.464Z,3.03
2022-09-27T18:49:53.197Z,2.97
2022-09-27T18:52:21.062Z,3.63
2022-09-27T18:54:49.081Z,3.20
2022-09-27T18:57:16.816Z,3.50
2022-09-27T18:59:48.009Z,3.17
2022-09-27T19:02:15.859Z,3.00
2022-09-27T19:04:43.557Z,3.20
2022-09-27T19:07:11.323Z,5.07
2022-09-27T19:09:39.022Z,3.20
2022-09-27T19:12:06.924Z,4.80
2022-09-27T19:14:34.651Z,3.20
2022-09-27T19:17:03.701Z,4.57
2022-09-27T19:19:31.382Z,3.23
2022-09-27T19:21:59.135Z,3.30
2022-09-27T19:24:26.937Z,4.60
2022-09-27T19:26:57.073Z,3.90
2022-09-27T19:29:24.858Z,3.10
2022-09-27T19:31:52.587Z,4.40
2022-09-27T19:34:21.822Z,3.80
2022-09-27T19:36:49.554Z,4.20
2022-09-27T19:39:17.670Z,3.80
2022-09-27T19:41:45.661Z,4.93
2022-09-27T19:44:14.349Z,4.13
2022-09-27T19:46:42.723Z,5.43
2022-09-27T19:49:10.760Z,6.60
2022-09-27T19:51:39.971Z,6.20
2022-09-27T19:54:07.719Z,3.73
2022-09-27T19:56:35.659Z,3.20
2022-09-27T19:59:14.649Z,4.50
2022-09-27T20:01:43.595Z,3.40
2022-09-27T20:04:13.275Z,3.53
2022-09-27T20:06:42.652Z,3.73
2022-09-27T20:09:10.556Z,3.90
2022-09-27T20:11:38.441Z,4.23
2022-09-27T20:14:06.156Z,4.10
2022-09-27T20:16:36.106Z,4.00
2022-09-27T20:19:07.201Z,4.03
2022-09-27T20:21:34.983Z,4.67
2022-09-27T20:24:05.996Z,4.20
2022-09-27T20:26:36.425Z,4.17
2022-09-27T20:29:05.486Z,4.00
2022-09-27T20:31:36.783Z,4.30
2022-09-27T20:34:04.730Z,4.23
2022-09-27T20:36:36.336Z,4.27
2022-09-27T20:39:07.889Z,4.07
2022-09-27T20:41:37.413Z,3.80
2022-09-27T20:44:07.172Z,4.13
2022-09-27T20:46:36.359Z,4.23
2022-09-27T20:49:05.925Z,4.40
2022-09-27T20:51:35.154Z,4.50
2022-09-27T20:54:05.399Z,4.20
2022-09-27T20:56:35.228Z,4.30
2022-09-27T20:59:05.019Z,4.60
2022-09-27T21:01:33.343Z,4.33
2022-09-27T21:04:02.803Z,3.80
2022-09-27T21:06:32.023Z,4.20
2022-09-27T21:09:00.971Z,4.70
2022-09-27T21:11:30.070Z,4.63
2022-09-27T21:13:57.801Z,4.80
2022-09-27T21:16:28.013Z,4.43
2022-09-27T21:18:58.556Z,4.80
2022-09-27T21:21:26.933Z,5.00
2022-09-27T21:23:56.754Z,6.30
2022-09-27T21:26:26.223Z,6.07
2022-09-27T21:28:56.874Z,5.30
2022-09-27T21:31:26.702Z,5.83
2022-09-27T21:33:58.440Z,6.27
2022-09-27T21:36:27.854Z,5.90
2022-09-27T21:38:55.951Z,5.80
2022-09-27T21:41:23.977Z,6.10
2022-09-27T21:43:51.715Z,6.53
2022-09-27T21:46:23.221Z,6.93
2022-09-27T21:48:52.658Z,7.87
2022-09-27T21:51:22.477Z,8.00
2022-09-27T21:53:52.173Z,7.13
2022-09-27T21:56:23.376Z,8.07
2022-09-27T21:58:51.323Z,8.47
2022-09-27T22:01:22.548Z,8.07
2022-09-27T22:03:52.023Z,8.23
2022-09-27T22:06:22.098Z,8.33
2022-09-27T22:08:50.464Z,9.00
2022-09-27T22:11:20.594Z,9.30
2022-09-27T22:13:48.527Z,9.00
2022-09-27T22:16:18.655Z,9.30
2022-09-27T22:18:49.558Z,9.37
2022-09-27T22:21:20.754Z,10.30
2022-09-27T22:23:48.837Z,9.67
2022-09-27T22:26:18.372Z,10.07
2022-09-27T22:28:47.277Z,9.97
2022-09-27T22:31:18.461Z,10.33
2022-09-27T22:33:51.488Z,10.93
2022-09-27T22:36:19.292Z,11.17
2022-09-27T22:38:47.139Z,11.63
2022-09-27T22:41:15.999Z,11.43
2022-09-27T22:43:44.214Z,11.37
2022-09-27T22:46:12.856Z,11.87
2022-09-27T22:48:41.272Z,11.70
2022-09-27T22:51:10.833Z,12.30
2022-09-27T22:53:39.025Z,11.60
2022-09-27T22:56:09.161Z,11.50
2022-09-27T22:58:38.158Z,12.00
2022-09-27T23:01:09.491Z,12.10
2022-09-27T23:03:37.754Z,11.80
2022-09-27T23:06:07.186Z,11.57
2022-09-27T23:08:37.366Z,12.00
2022-09-27T23:11:07.068Z,11.20
2022-09-27T23:13:36.431Z,10.27
2022-09-27T23:16:06.011Z,11.10
2022-09-27T23:18:34.039Z,11.03
2022-09-27T23:21:03.789Z,10.93
2022-09-27T23:23:32.301Z,11.40
2022-09-27T23:26:03.220Z,11.23
2022-09-27T23:28:32.289Z,10.43
2022-09-27T23:31:07.884Z,11.93
2022-09-27T23:33:36.339Z,11.60
2022-09-27T23:36:04.567Z,11.63
2022-09-27T23:38:32.519Z,11.53
2022-09-27T23:41:01.843Z,11.73
2022-09-27T23:43:29.870Z,11.73
2022-09-27T23:45:57.759Z,12.00
2022-09-27T23:48:26.082Z,11.30
2022-09-27T23:50:53.945Z,11.33
2022-09-27T23:53:22.255Z,11.93
2022-09-27T23:56:02.700Z,11.27
2022-09-27T23:58:32.879Z,12.27
